sensor_id;sensor_type;location;lat;lon;timestamp;temperature;humidity
7738;DHT22;29398;45.328;5.558;2022-08-19T00:00:29;21.40;99.90
7738;DHT22;29398;45.328;5.558;2022-08-19T00:01:30;21.40;99.90
7738;DHT22;29398;45.328;5.558;2022-08-19T00:02:32;21.50;99.90
7738;DHT22;29398;45.328;5.558;2022-08-19T00:03:34;21.40;99.90
7738;DHT22;29398;45.328;5.558;2022-08-19T00:04:37;21.40;99.90
7738;DHT22;29398;45.328;5.558;2022-08-19T00:05:40;21.40;99.90
7738;DHT22;29398;45.328;5.558;2022-08-19T00:06:45;21.30;99.90
7738;DHT22;29398;45.328;5.558;2022-08-19T00:07:47;21.30;99.90
7738;DHT22;29398;45.328;5.558;2022-08-19T00:08:49;21.30;99.90
7738;DHT22;29398;45.328;5.558;2022-08-19T00:09:51;21.30;99.90
7738;DHT22;29398;45.328;5.558;2022-08-19T00:10:53;21.30;99.90
7738;DHT22;29398;45.328;5.558;2022-08-19T00:11:56;21.30;99.90
7738;DHT22;29398;45.328;5.558;2022-08-19T00:12:58;21.30;99.90
7738;DHT22;29398;45.328;5.558;2022-08-19T00:14:01;21.30;99.90
7738;DHT22;29398;45.328;5.558;2022-08-19T00:15:03;21.30;99.90
7738;DHT22;29398;45.328;5.558;2022-08-19T00:16:06;21.30;99.90
7738;DHT22;29398;45.328;5.558;2022-08-19T00:17:08;21.30;99.90
7738;DHT22;29398;45.328;5.558;2022-08-19T00:18:10;21.30;99.90
7738;DHT22;29398;45.328;5.558;2022-08-19T00:19:12;21.40;99.90
7738;DHT22;29398;45.328;5.558;2022-08-19T00:20:18;21.40;99.90
7738;DHT22;29398;45.328;5.558;2022-08-19T00:21:20;21.40;99.90
7738;DHT22;29398;45.328;5.558;2022-08-19T00:22:22;21.50;99.90
7738;DHT22;29398;45.328;5.558;2022-08-19T00:23:23;21.50;99.90
7738;DHT22;29398;45.328;5.558;2022-08-19T00:24:25;21.50;99.90
7738;DHT22;29398;45.328;5.558;2022-08-19T00:25:28;21.60;99.90
7738;DHT22;29398;45.328;5.558;2022-08-19T00:26:30;21.60;99.90
7738;DHT22;29398;45.328;5.558;2022-08-19T00:27:31;21.60;99.90
7738;DHT22;29398;45.328;5.558;2022-08-19T00:28:34;21.60;99.90
7738;DHT22;29398;45.328;5.558;2022-08-19T00:29:36;21.60;99.90
7738;DHT22;29398;45.328;5.558;2022-08-19T00:30:38;21.50;99.90
7738;DHT22;29398;45.328;5.558;2022-08-19T00:31:40;21.50;99.90
7738;DHT22;29398;45.328;5.558;2022-08-19T00:32:42;21.50;99.90
7738;DHT22;29398;45.328;5.558;2022-08-19T00:33:43;21.40;99.90
7738;DHT22;29398;45.328;5.558;2022-08-19T00:34:45;21.40;99.90
7738;DHT22;29398;45.328;5.558;2022-08-19T00:35:48;21.40;99.90
7738;DHT22;29398;45.328;5.558;2022-08-19T00:36:50;21.40;99.90
7738;DHT22;29398;45.328;5.558;2022-08-19T00:37:51;21.40;99.90
7738;DHT22;29398;45.328;5.558;2022-08-19T00:38:53;21.40;99.90
7738;DHT22;29398;45.328;5.558;2022-08-19T00:39:55;21.40;99.90
7738;DHT22;29398;45.328;5.558;2022-08-19T00:40:57;21.40;99.90
7738;DHT22;29398;45.328;5.558;2022-08-19T00:41:59;21.40;99.90
7738;DHT22;29398;45.328;5.558;2022-08-19T00:43:01;21.40;99.90
7738;DHT22;29398;45.328;5.558;2022-08-19T00:44:10;21.50;99.90
7738;DHT22;29398;45.328;5.558;2022-08-19T00:45:15;21.50;99.90
7738;DHT22;29398;45.328;5.558;2022-08-19T00:46:17;21.50;99.90
7738;DHT22;29398;45.328;5.558;2022-08-19T00:47:21;21.50;99.90
7738;DHT22;29398;45.328;5.558;2022-08-19T00:48:22;21.50;99.90
7738;DHT22;29398;45.328;5.558;2022-08-19T00:49:29;21.60;99.90
7738;DHT22;29398;45.328;5.558;2022-08-19T00:50:32;21.50;99.90
7738;DHT22;29398;45.328;5.558;2022-08-19T00:51:36;21.60;99.90
7738;DHT22;29398;45.328;5.558;2022-08-19T00:52:40;21.60;99.90
7738;DHT22;29398;45.328;5.558;2022-08-19T00:53:46;21.60;99.90
7738;DHT22;29398;45.328;5.558;2022-08-19T00:54:47;21.60;99.90
7738;DHT22;29398;45.328;5.558;2022-08-19T00:55:53;21.60;99.90
7738;DHT22;29398;45.328;5.558;2022-08-19T00:56:55;21.50;99.90
7738;DHT22;29398;45.328;5.558;2022-08-19T00:58:00;21.50;99.90
7738;DHT22;29398;45.328;5.558;2022-08-19T00:59:02;21.50;99.90
7738;DHT22;29398;45.328;5.558;2022-08-19T01:00:12;21.60;99.90
7738;DHT22;29398;45.328;5.558;2022-08-19T01:01:14;21.50;99.90
7738;DHT22;29398;45.328;5.558;2022-08-19T01:02:17;21.50;99.90
7738;DHT22;29398;45.328;5.558;2022-08-19T01:03:20;21.50;99.90
7738;DHT22;29398;45.328;5.558;2022-08-19T01:04:22;21.50;99.90
7738;DHT22;29398;45.328;5.558;2022-08-19T01:05:26;21.50;99.90
7738;DHT22;29398;45.328;5.558;2022-08-19T01:06:30;21.50;99.90
7738;DHT22;29398;45.328;5.558;2022-08-19T01:07:34;21.50;99.90
7738;DHT22;29398;45.328;5.558;2022-08-19T01:08:37;21.50;99.90
7738;DHT22;29398;45.328;5.558;2022-08-19T01:09:38;21.50;99.90
7738;DHT22;29398;45.328;5.558;2022-08-19T01:10:43;21.50;99.90
7738;DHT22;29398;45.328;5.558;2022-08-19T01:11:45;21.50;99.90
7738;DHT22;29398;45.328;5.558;2022-08-19T01:12:48;21.50;99.90
7738;DHT22;29398;45.328;5.558;2022-08-19T01:13:50;21.50;99.90
7738;DHT22;29398;45.328;5.558;2022-08-19T01:14:53;21.40;99.90
7738;DHT22;29398;45.328;5.558;2022-08-19T01:15:58;21.40;99.90
7738;DHT22;29398;45.328;5.558;2022-08-19T01:17:02;21.30;99.90
7738;DHT22;29398;45.328;5.558;2022-08-19T01:18:07;21.40;99.90
7738;DHT22;29398;45.328;5.558;2022-08-19T01:19:15;21.30;99.90
7738;DHT22;29398;45.328;5.558;2022-08-19T01:20:22;21.30;99.90
7738;DHT22;29398;45.328;5.558;2022-08-19T01:21:27;21.30;99.90
7738;DHT22;29398;45.328;5.558;2022-08-19T01:22:36;21.30;99.90
7738;DHT22;29398;45.328;5.558;2022-08-19T01:23:39;21.30;99.90
7738;DHT22;29398;45.328;5.558;2022-08-19T01:24:43;21.40;99.90
7738;DHT22;29398;45.328;5.558;2022-08-19T01:25:47;21.30;99.90
7738;DHT22;29398;45.328;5.558;2022-08-19T01:26:51;21.40;99.90
7738;DHT22;29398;45.328;5.558;2022-08-19T01:27:54;21.30;99.90
7738;DHT22;29398;45.328;5.558;2022-08-19T01:28:58;21.30;99.90
7738;DHT22;29398;45.328;5.558;2022-08-19T01:30:02;21.30;99.90
7738;DHT22;29398;45.328;5.558;2022-08-19T01:32:07;21.30;99.90
7738;DHT22;29398;45.328;5.558;2022-08-19T01:33:08;21.40;99.90
7738;DHT22;29398;45.328;5.558;2022-08-19T01:34:10;21.30;99.90
7738;DHT22;29398;45.328;5.558;2022-08-19T01:35:12;21.40;99.90
7738;DHT22;29398;45.328;5.558;2022-08-19T01:36:23;21.40;99.90
7738;DHT22;29398;45.328;5.558;2022-08-19T01:37:25;21.40;99.90
7738;DHT22;29398;45.328;5.558;2022-08-19T01:38:28;21.40;99.90
7738;DHT22;29398;45.328;5.558;2022-08-19T01:39:30;21.40;99.90
7738;DHT22;29398;45.328;5.558;2022-08-19T01:40:36;21.40;99.90
7738;DHT22;29398;45.328;5.558;2022-08-19T01:41:37;21.40;99.90
7738;DHT22;29398;45.328;5.558;2022-08-19T01:42:39;21.30;99.90
7738;DHT22;29398;45.328;5.558;2022-08-19T01:43:41;21.30;99.90
7738;DHT22;29398;45.328;5.558;2022-08-19T01:44:43;21.30;99.90
7738;DHT22;29398;45.328;5.558;2022-08-19T01:45:45;21.30;99.90
7738;DHT22;29398;45.328;5.558;2022-08-19T01:46:48;21.30;99.90
7738;DHT22;29398;45.328;5.558;2022-08-19T01:47:49;21.30;99.90
7738;DHT22;29398;45.328;5.558;2022-08-19T01:48:51;21.30;99.90
7738;DHT22;29398;45.328;5.558;2022-08-19T01:49:52;21.30;99.90
7738;DHT22;29398;45.328;5.558;2022-08-19T01:50:54;21.30;99.90
7738;DHT22;29398;45.328;5.558;2022-08-19T01:51:55;21.30;99.90
7738;DHT22;29398;45.328;5.558;2022-08-19T01:53:00;21.30;99.90
7738;DHT22;29398;45.328;5.558;2022-08-19T01:54:03;21.30;99.90
7738;DHT22;29398;45.328;5.558;2022-08-19T01:55:07;21.30;99.90
7738;DHT22;29398;45.328;5.558;2022-08-19T01:56:09;21.30;99.90
7738;DHT22;29398;45.328;5.558;2022-08-19T01:57:13;21.20;99.90
7738;DHT22;29398;45.328;5.558;2022-08-19T01:58:18;21.30;99.90
7738;DHT22;29398;45.328;5.558;2022-08-19T01:59:24;21.30;99.90
7738;DHT22;29398;45.328;5.558;2022-08-19T02:00:27;21.30;99.90
7738;DHT22;29398;45.328;5.558;2022-08-19T02:01:30;21.40;99.90
7738;DHT22;29398;45.328;5.558;2022-08-19T02:02:32;21.30;99.90
7738;DHT22;29398;45.328;5.558;2022-08-19T02:03:34;21.30;99.90
7738;DHT22;29398;45.328;5.558;2022-08-19T02:04:36;21.30;99.90
7738;DHT22;29398;45.328;5.558;2022-08-19T02:05:40;21.30;99.90
7738;DHT22;29398;45.328;5.558;2022-08-19T02:06:42;21.20;99.90
7738;DHT22;29398;45.328;5.558;2022-08-19T02:07:44;21.30;99.90
7738;DHT22;29398;45.328;5.558;2022-08-19T02:08:45;21.20;99.90
7738;DHT22;29398;45.328;5.558;2022-08-19T02:09:49;21.10;99.90
7738;DHT22;29398;45.328;5.558;2022-08-19T02:10:50;21.30;99.90
7738;DHT22;29398;45.328;5.558;2022-08-19T02:11:53;21.20;99.90
7738;DHT22;29398;45.328;5.558;2022-08-19T02:12:54;21.10;99.90
7738;DHT22;29398;45.328;5.558;2022-08-19T02:13:56;21.10;99.90
7738;DHT22;29398;45.328;5.558;2022-08-19T02:14:59;21.10;99.90
7738;DHT22;29398;45.328;5.558;2022-08-19T02:16:01;21.00;99.90
7738;DHT22;29398;45.328;5.558;2022-08-19T02:17:04;21.00;99.90
7738;DHT22;29398;45.328;5.558;2022-08-19T02:18:05;21.10;99.90
7738;DHT22;29398;45.328;5.558;2022-08-19T02:19:08;21.10;99.90
7738;DHT22;29398;45.328;5.558;2022-08-19T02:20:11;21.10;99.90
7738;DHT22;29398;45.328;5.558;2022-08-19T02:21:14;21.10;99.90
7738;DHT22;29398;45.328;5.558;2022-08-19T02:22:16;21.10;99.90
7738;DHT22;29398;45.328;5.558;2022-08-19T02:23:18;21.10;99.90
7738;DHT22;29398;45.328;5.558;2022-08-19T02:24:19;21.10;99.90
7738;DHT22;29398;45.328;5.558;2022-08-19T02:25:23;21.10;99.90
7738;DHT22;29398;45.328;5.558;2022-08-19T02:27:27;21.10;99.90
7738;DHT22;29398;45.328;5.558;2022-08-19T02:28:28;22.90;99.90
7738;DHT22;29398;45.328;5.558;2022-08-19T02:29:30;21.00;99.90
7738;DHT22;29398;45.328;5.558;2022-08-19T02:30:31;21.00;99.90
7738;DHT22;29398;45.328;5.558;2022-08-19T02:31:33;21.00;99.90
7738;DHT22;29398;45.328;5.558;2022-08-19T02:32:34;21.00;99.90
7738;DHT22;29398;45.328;5.558;2022-08-19T02:33:36;21.00;99.90
7738;DHT22;29398;45.328;5.558;2022-08-19T02:34:38;20.90;99.90
7738;DHT22;29398;45.328;5.558;2022-08-19T02:35:41;20.90;99.90
7738;DHT22;29398;45.328;5.558;2022-08-19T02:36:43;20.90;99.90
7738;DHT22;29398;45.328;5.558;2022-08-19T02:37:45;20.90;99.90
7738;DHT22;29398;45.328;5.558;2022-08-19T02:39:04;20.90;99.90
7738;DHT22;29398;45.328;5.558;2022-08-19T02:40:06;21.00;99.90
7738;DHT22;29398;45.328;5.558;2022-08-19T02:41:13;21.00;99.90
7738;DHT22;29398;45.328;5.558;2022-08-19T02:42:15;21.00;99.90
7738;DHT22;29398;45.328;5.558;2022-08-19T02:43:16;21.00;99.90
7738;DHT22;29398;45.328;5.558;2022-08-19T02:44:20;21.00;99.90
7738;DHT22;29398;45.328;5.558;2022-08-19T02:45:22;21.00;99.90
7738;DHT22;29398;45.328;5.558;2022-08-19T02:46:26;21.00;99.90
7738;DHT22;29398;45.328;5.558;2022-08-19T02:47:28;21.00;99.90
7738;DHT22;29398;45.328;5.558;2022-08-19T02:48:29;21.00;99.90
7738;DHT22;29398;45.328;5.558;2022-08-19T02:49:33;21.00;99.90
7738;DHT22;29398;45.328;5.558;2022-08-19T02:50:37;21.00;99.90
7738;DHT22;29398;45.328;5.558;2022-08-19T02:51:42;21.00;99.90
7738;DHT22;29398;45.328;5.558;2022-08-19T02:52:43;21.00;99.90
7738;DHT22;29398;45.328;5.558;2022-08-19T02:53:45;21.00;99.90
7738;DHT22;29398;45.328;5.558;2022-08-19T02:54:46;20.90;99.90
7738;DHT22;29398;45.328;5.558;2022-08-19T02:55:49;21.00;99.90
7738;DHT22;29398;45.328;5.558;2022-08-19T02:56:51;20.90;99.90
7738;DHT22;29398;45.328;5.558;2022-08-19T02:57:53;21.00;99.90
7738;DHT22;29398;45.328;5.558;2022-08-19T02:58:55;21.00;99.90
7738;DHT22;29398;45.328;5.558;2022-08-19T02:59:57;21.00;99.90
7738;DHT22;29398;45.328;5.558;2022-08-19T03:00:59;20.90;99.90
7738;DHT22;29398;45.328;5.558;2022-08-19T03:02:01;20.90;99.90
7738;DHT22;29398;45.328;5.558;2022-08-19T03:04:05;20.80;99.90
7738;DHT22;29398;45.328;5.558;2022-08-19T03:05:08;20.80;99.90
7738;DHT22;29398;45.328;5.558;2022-08-19T03:06:13;20.80;99.90
7738;DHT22;29398;45.328;5.558;2022-08-19T03:07:16;20.70;99.90
7738;DHT22;29398;45.328;5.558;2022-08-19T03:08:19;20.80;99.90
7738;DHT22;29398;45.328;5.558;2022-08-19T03:09:20;20.80;99.90
7738;DHT22;29398;45.328;5.558;2022-08-19T03:10:22;20.80;99.90
7738;DHT22;29398;45.328;5.558;2022-08-19T03:11:25;20.70;99.90
7738;DHT22;29398;45.328;5.558;2022-08-19T03:12:29;20.70;99.90
7738;DHT22;29398;45.328;5.558;2022-08-19T03:14:34;20.70;99.90
7738;DHT22;29398;45.328;5.558;2022-08-19T03:15:39;20.70;99.90
7738;DHT22;29398;45.328;5.558;2022-08-19T03:16:44;20.60;99.90
7738;DHT22;29398;45.328;5.558;2022-08-19T03:17:45;20.70;99.90
7738;DHT22;29398;45.328;5.558;2022-08-19T03:18:47;20.60;99.90
7738;DHT22;29398;45.328;5.558;2022-08-19T03:19:48;20.60;99.90
7738;DHT22;29398;45.328;5.558;2022-08-19T03:20:52;20.60;99.90
7738;DHT22;29398;45.328;5.558;2022-08-19T03:21:58;20.70;99.90
7738;DHT22;29398;45.328;5.558;2022-08-19T03:23:00;20.70;99.90
7738;DHT22;29398;45.328;5.558;2022-08-19T03:24:03;20.70;99.90
7738;DHT22;29398;45.328;5.558;2022-08-19T03:25:06;20.70;99.90
7738;DHT22;29398;45.328;5.558;2022-08-19T03:26:07;20.70;99.90
7738;DHT22;29398;45.328;5.558;2022-08-19T03:27:10;20.70;99.90
7738;DHT22;29398;45.328;5.558;2022-08-19T03:28:14;20.80;99.90
7738;DHT22;29398;45.328;5.558;2022-08-19T03:29:16;20.70;99.90
7738;DHT22;29398;45.328;5.558;2022-08-19T03:30:17;20.80;99.90
7738;DHT22;29398;45.328;5.558;2022-08-19T03:31:21;20.80;99.90
7738;DHT22;29398;45.328;5.558;2022-08-19T03:32:23;20.80;99.90
7738;DHT22;29398;45.328;5.558;2022-08-19T03:33:26;20.80;99.90
7738;DHT22;29398;45.328;5.558;2022-08-19T03:34:29;20.80;99.90
7738;DHT22;29398;45.328;5.558;2022-08-19T03:35:32;20.80;99.90
7738;DHT22;29398;45.328;5.558;2022-08-19T03:36:33;20.80;99.90
7738;DHT22;29398;45.328;5.558;2022-08-19T03:37:35;20.80;99.90
7738;DHT22;29398;45.328;5.558;2022-08-19T03:38:38;20.70;99.90
7738;DHT22;29398;45.328;5.558;2022-08-19T03:39:41;20.70;99.90
7738;DHT22;29398;45.328;5.558;2022-08-19T03:40:42;20.70;99.90
7738;DHT22;29398;45.328;5.558;2022-08-19T03:41:46;20.70;99.90
7738;DHT22;29398;45.328;5.558;2022-08-19T03:42:47;20.70;99.90
7738;DHT22;29398;45.328;5.558;2022-08-19T03:43:52;20.80;99.90
7738;DHT22;29398;45.328;5.558;2022-08-19T03:44:54;20.80;99.90
7738;DHT22;29398;45.328;5.558;2022-08-19T03:46:04;20.80;99.90
7738;DHT22;29398;45.328;5.558;2022-08-19T03:47:06;20.80;99.90
7738;DHT22;29398;45.328;5.558;2022-08-19T03:48:08;20.80;99.90
7738;DHT22;29398;45.328;5.558;2022-08-19T03:49:10;20.90;99.90
7738;DHT22;29398;45.328;5.558;2022-08-19T03:50:12;20.80;99.90
7738;DHT22;29398;45.328;5.558;2022-08-19T03:51:17;20.80;99.90
7738;DHT22;29398;45.328;5.558;2022-08-19T03:52:20;20.80;99.90
7738;DHT22;29398;45.328;5.558;2022-08-19T03:53:21;20.80;99.90
7738;DHT22;29398;45.328;5.558;2022-08-19T03:54:24;20.80;99.90
7738;DHT22;29398;45.328;5.558;2022-08-19T03:55:26;20.90;99.90
7738;DHT22;29398;45.328;5.558;2022-08-19T03:56:28;20.90;99.90
7738;DHT22;29398;45.328;5.558;2022-08-19T03:57:30;20.90;99.90
7738;DHT22;29398;45.328;5.558;2022-08-19T03:58:33;20.90;99.90
7738;DHT22;29398;45.328;5.558;2022-08-19T03:59:37;20.90;99.90
7738;DHT22;29398;45.328;5.558;2022-08-19T04:00:41;20.90;99.90
7738;DHT22;29398;45.328;5.558;2022-08-19T04:01:43;20.90;99.90
7738;DHT22;29398;45.328;5.558;2022-08-19T04:02:45;20.90;99.90
7738;DHT22;29398;45.328;5.558;2022-08-19T04:03:47;20.90;99.90
7738;DHT22;29398;45.328;5.558;2022-08-19T04:04:53;20.90;99.90
7738;DHT22;29398;45.328;5.558;2022-08-19T04:05:55;20.90;99.90
7738;DHT22;29398;45.328;5.558;2022-08-19T04:06:56;20.90;99.90
7738;DHT22;29398;45.328;5.558;2022-08-19T04:07:58;20.90;99.90
7738;DHT22;29398;45.328;5.558;2022-08-19T04:09:03;20.90;99.90
7738;DHT22;29398;45.328;5.558;2022-08-19T04:10:06;20.90;99.90
7738;DHT22;29398;45.328;5.558;2022-08-19T04:11:08;20.90;99.90
7738;DHT22;29398;45.328;5.558;2022-08-19T04:12:09;20.90;99.90
7738;DHT22;29398;45.328;5.558;2022-08-19T04:13:12;20.90;99.90
7738;DHT22;29398;45.328;5.558;2022-08-19T04:14:16;20.80;99.90
7738;DHT22;29398;45.328;5.558;2022-08-19T04:15:20;20.80;99.90
7738;DHT22;29398;45.328;5.558;2022-08-19T04:16:24;20.80;99.90
7738;DHT22;29398;45.328;5.558;2022-08-19T04:17:29;20.80;99.90
7738;DHT22;29398;45.328;5.558;2022-08-19T04:18:30;20.90;99.90
7738;DHT22;29398;45.328;5.558;2022-08-19T04:19:34;20.80;99.90
7738;DHT22;29398;45.328;5.558;2022-08-19T04:20:40;20.80;99.90
7738;DHT22;29398;45.328;5.558;2022-08-19T04:21:46;20.80;99.90
7738;DHT22;29398;45.328;5.558;2022-08-19T04:22:48;20.80;99.90
7738;DHT22;29398;45.328;5.558;2022-08-19T04:23:50;20.80;99.90
7738;DHT22;29398;45.328;5.558;2022-08-19T04:24:51;20.80;99.90
7738;DHT22;29398;45.328;5.558;2022-08-19T04:25:54;20.80;99.90
7738;DHT22;29398;45.328;5.558;2022-08-19T04:26:55;20.80;99.90
7738;DHT22;29398;45.328;5.558;2022-08-19T04:27:57;20.80;99.90
7738;DHT22;29398;45.328;5.558;2022-08-19T04:28:59;20.70;99.90
7738;DHT22;29398;45.328;5.558;2022-08-19T04:30:02;20.70;99.90
7738;DHT22;29398;45.328;5.558;2022-08-19T04:31:05;20.70;99.90
7738;DHT22;29398;45.328;5.558;2022-08-19T04:32:08;20.70;99.90
7738;DHT22;29398;45.328;5.558;2022-08-19T04:33:10;20.70;99.90
7738;DHT22;29398;45.328;5.558;2022-08-19T04:34:15;20.70;99.90
7738;DHT22;29398;45.328;5.558;2022-08-19T04:35:16;20.70;99.90
7738;DHT22;29398;45.328;5.558;2022-08-19T04:36:21;20.80;99.90
7738;DHT22;29398;45.328;5.558;2022-08-19T04:37:23;20.80;99.90
7738;DHT22;29398;45.328;5.558;2022-08-19T04:38:25;20.70;99.90
7738;DHT22;29398;45.328;5.558;2022-08-19T04:39:28;20.80;99.90
7738;DHT22;29398;45.328;5.558;2022-08-19T04:40:46;20.80;99.90
7738;DHT22;29398;45.328;5.558;2022-08-19T04:42:07;20.80;99.90
7738;DHT22;29398;45.328;5.558;2022-08-19T04:43:26;20.80;99.90
7738;DHT22;29398;45.328;5.558;2022-08-19T04:44:30;20.80;99.90
7738;DHT22;29398;45.328;5.558;2022-08-19T04:45:31;20.80;99.90
7738;DHT22;29398;45.328;5.558;2022-08-19T04:46:34;20.90;99.90
7738;DHT22;29398;45.328;5.558;2022-08-19T04:47:35;20.90;99.90
7738;DHT22;29398;45.328;5.558;2022-08-19T04:48:39;20.80;99.90
7738;DHT22;29398;45.328;5.558;2022-08-19T04:49:41;20.80;99.90
7738;DHT22;29398;45.328;5.558;2022-08-19T04:50:44;20.80;99.90
7738;DHT22;29398;45.328;5.558;2022-08-19T04:51:46;20.80;99.90
7738;DHT22;29398;45.328;5.558;2022-08-19T04:52:50;20.80;99.90
7738;DHT22;29398;45.328;5.558;2022-08-19T04:53:53;20.80;99.90
7738;DHT22;29398;45.328;5.558;2022-08-19T04:54:54;20.70;99.90
7738;DHT22;29398;45.328;5.558;2022-08-19T04:55:57;20.80;99.90
7738;DHT22;29398;45.328;5.558;2022-08-19T04:56:59;20.80;99.90
7738;DHT22;29398;45.328;5.558;2022-08-19T04:58:01;20.80;99.90
7738;DHT22;29398;45.328;5.558;2022-08-19T04:59:03;20.80;99.90
7738;DHT22;29398;45.328;5.558;2022-08-19T05:00:07;20.80;99.90
7738;DHT22;29398;45.328;5.558;2022-08-19T05:01:09;20.70;99.90
7738;DHT22;29398;45.328;5.558;2022-08-19T05:02:12;20.70;99.90
7738;DHT22;29398;45.328;5.558;2022-08-19T05:03:13;20.70;99.90
7738;DHT22;29398;45.328;5.558;2022-08-19T05:04:19;20.60;99.90
7738;DHT22;29398;45.328;5.558;2022-08-19T05:05:20;20.50;99.90
7738;DHT22;29398;45.328;5.558;2022-08-19T05:06:23;20.60;99.90
7738;DHT22;29398;45.328;5.558;2022-08-19T05:07:26;20.50;99.90
7738;DHT22;29398;45.328;5.558;2022-08-19T05:08:28;20.50;99.90
7738;DHT22;29398;45.328;5.558;2022-08-19T05:09:30;20.50;99.90
7738;DHT22;29398;45.328;5.558;2022-08-19T05:10:34;20.50;99.90
7738;DHT22;29398;45.328;5.558;2022-08-19T05:11:37;20.50;99.90
7738;DHT22;29398;45.328;5.558;2022-08-19T05:12:40;20.50;99.90
7738;DHT22;29398;45.328;5.558;2022-08-19T05:13:42;20.50;99.90
7738;DHT22;29398;45.328;5.558;2022-08-19T05:14:45;20.50;99.90
7738;DHT22;29398;45.328;5.558;2022-08-19T05:15:54;20.50;99.90
7738;DHT22;29398;45.328;5.558;2022-08-19T05:16:55;20.50;99.90
7738;DHT22;29398;45.328;5.558;2022-08-19T05:17:58;20.60;99.90
7738;DHT22;29398;45.328;5.558;2022-08-19T05:19:17;20.50;99.90
7738;DHT22;29398;45.328;5.558;2022-08-19T05:20:38;20.60;99.90
7738;DHT22;29398;45.328;5.558;2022-08-19T05:22:09;20.50;99.90
7738;DHT22;29398;45.328;5.558;2022-08-19T05:23:28;20.50;99.90
7738;DHT22;29398;45.328;5.558;2022-08-19T05:24:31;20.50;99.90
7738;DHT22;29398;45.328;5.558;2022-08-19T05:25:34;20.50;99.90
7738;DHT22;29398;45.328;5.558;2022-08-19T05:26:37;20.60;99.90
7738;DHT22;29398;45.328;5.558;2022-08-19T05:27:39;20.60;99.90
7738;DHT22;29398;45.328;5.558;2022-08-19T05:28:41;20.50;99.90
7738;DHT22;29398;45.328;5.558;2022-08-19T05:29:42;20.60;99.90
7738;DHT22;29398;45.328;5.558;2022-08-19T05:30:45;20.60;99.90
7738;DHT22;29398;45.328;5.558;2022-08-19T05:31:47;20.50;99.90
7738;DHT22;29398;45.328;5.558;2022-08-19T05:32:50;20.50;99.90
7738;DHT22;29398;45.328;5.558;2022-08-19T05:33:54;20.50;99.90
7738;DHT22;29398;45.328;5.558;2022-08-19T05:34:56;20.60;99.90
7738;DHT22;29398;45.328;5.558;2022-08-19T05:35:58;20.60;99.90
7738;DHT22;29398;45.328;5.558;2022-08-19T05:37:02;20.50;99.90
7738;DHT22;29398;45.328;5.558;2022-08-19T05:38:05;20.50;99.90
7738;DHT22;29398;45.328;5.558;2022-08-19T05:39:10;20.50;99.90
7738;DHT22;29398;45.328;5.558;2022-08-19T05:40:12;20.50;99.90
7738;DHT22;29398;45.328;5.558;2022-08-19T05:41:14;20.50;99.90
7738;DHT22;29398;45.328;5.558;2022-08-19T05:42:18;20.40;99.90
7738;DHT22;29398;45.328;5.558;2022-08-19T05:43:20;20.50;99.90
7738;DHT22;29398;45.328;5.558;2022-08-19T05:44:24;20.50;99.90
7738;DHT22;29398;45.328;5.558;2022-08-19T05:45:25;20.50;99.90
7738;DHT22;29398;45.328;5.558;2022-08-19T05:46:28;20.50;99.90
7738;DHT22;29398;45.328;5.558;2022-08-19T05:47:29;20.50;99.90
7738;DHT22;29398;45.328;5.558;2022-08-19T05:48:32;20.50;99.90
7738;DHT22;29398;45.328;5.558;2022-08-19T05:49:35;20.50;99.90
7738;DHT22;29398;45.328;5.558;2022-08-19T05:50:38;20.50;99.90
7738;DHT22;29398;45.328;5.558;2022-08-19T05:51:40;20.50;99.90
7738;DHT22;29398;45.328;5.558;2022-08-19T05:52:42;20.40;99.90
7738;DHT22;29398;45.328;5.558;2022-08-19T05:53:44;20.50;99.90
7738;DHT22;29398;45.328;5.558;2022-08-19T05:54:47;20.50;99.90
7738;DHT22;29398;45.328;5.558;2022-08-19T05:55:48;20.50;99.90
7738;DHT22;29398;45.328;5.558;2022-08-19T05:56:51;20.50;99.90
7738;DHT22;29398;45.328;5.558;2022-08-19T05:57:52;20.50;99.90
7738;DHT22;29398;45.328;5.558;2022-08-19T05:58:54;20.50;99.90
7738;DHT22;29398;45.328;5.558;2022-08-19T05:59:55;20.50;99.90
7738;DHT22;29398;45.328;5.558;2022-08-19T06:00:58;20.50;99.90
7738;DHT22;29398;45.328;5.558;2022-08-19T06:01:59;20.50;99.90
7738;DHT22;29398;45.328;5.558;2022-08-19T06:03:01;20.60;99.90
7738;DHT22;29398;45.328;5.558;2022-08-19T06:04:04;20.50;99.90
7738;DHT22;29398;45.328;5.558;2022-08-19T06:05:09;20.50;99.90
7738;DHT22;29398;45.328;5.558;2022-08-19T06:06:12;20.60;99.90
7738;DHT22;29398;45.328;5.558;2022-08-19T06:07:15;20.60;99.90
7738;DHT22;29398;45.328;5.558;2022-08-19T06:08:18;20.60;99.90
7738;DHT22;29398;45.328;5.558;2022-08-19T06:09:20;20.60;99.90
7738;DHT22;29398;45.328;5.558;2022-08-19T06:10:22;20.60;99.90
7738;DHT22;29398;45.328;5.558;2022-08-19T06:11:32;20.60;99.90
7738;DHT22;29398;45.328;5.558;2022-08-19T06:12:35;20.60;99.90
7738;DHT22;29398;45.328;5.558;2022-08-19T06:13:37;20.70;99.90
7738;DHT22;29398;45.328;5.558;2022-08-19T06:14:39;20.70;99.90
7738;DHT22;29398;45.328;5.558;2022-08-19T06:15:42;20.70;99.90
7738;DHT22;29398;45.328;5.558;2022-08-19T06:16:45;20.70;99.90
7738;DHT22;29398;45.328;5.558;2022-08-19T06:17:47;20.70;99.90
7738;DHT22;29398;45.328;5.558;2022-08-19T06:18:49;20.70;99.90
7738;DHT22;29398;45.328;5.558;2022-08-19T06:19:53;20.70;99.90
7738;DHT22;29398;45.328;5.558;2022-08-19T06:20:55;20.70;99.90
7738;DHT22;29398;45.328;5.558;2022-08-19T06:21:59;20.70;99.90
7738;DHT22;29398;45.328;5.558;2022-08-19T06:23:00;20.60;99.90
7738;DHT22;29398;45.328;5.558;2022-08-19T06:24:03;20.50;99.90
7738;DHT22;29398;45.328;5.558;2022-08-19T06:25:06;20.50;99.90
7738;DHT22;29398;45.328;5.558;2022-08-19T06:26:12;20.50;99.90
7738;DHT22;29398;45.328;5.558;2022-08-19T06:27:13;20.50;99.90
7738;DHT22;29398;45.328;5.558;2022-08-19T06:28:16;20.40;99.90
7738;DHT22;29398;45.328;5.558;2022-08-19T06:29:19;20.50;99.90
7738;DHT22;29398;45.328;5.558;2022-08-19T06:30:21;20.50;99.90
7738;DHT22;29398;45.328;5.558;2022-08-19T06:31:24;20.50;99.90
7738;DHT22;29398;45.328;5.558;2022-08-19T06:32:27;20.50;99.90
7738;DHT22;29398;45.328;5.558;2022-08-19T06:33:28;20.50;99.90
7738;DHT22;29398;45.328;5.558;2022-08-19T06:34:32;20.50;99.90
7738;DHT22;29398;45.328;5.558;2022-08-19T06:35:38;20.50;99.90
7738;DHT22;29398;45.328;5.558;2022-08-19T06:36:43;20.50;99.90
7738;DHT22;29398;45.328;5.558;2022-08-19T06:37:45;20.60;99.90
7738;DHT22;29398;45.328;5.558;2022-08-19T06:38:47;20.60;99.90
7738;DHT22;29398;45.328;5.558;2022-08-19T06:39:49;20.60;99.90
7738;DHT22;29398;45.328;5.558;2022-08-19T06:41:00;20.60;99.90
7738;DHT22;29398;45.328;5.558;2022-08-19T06:42:03;20.60;99.90
7738;DHT22;29398;45.328;5.558;2022-08-19T06:43:09;20.60;99.90
7738;DHT22;29398;45.328;5.558;2022-08-19T06:44:11;20.60;99.90
7738;DHT22;29398;45.328;5.558;2022-08-19T06:45:13;20.60;99.90
7738;DHT22;29398;45.328;5.558;2022-08-19T06:46:16;20.60;99.90
7738;DHT22;29398;45.328;5.558;2022-08-19T06:47:21;20.60;99.90
7738;DHT22;29398;45.328;5.558;2022-08-19T06:48:23;20.60;99.90
7738;DHT22;29398;45.328;5.558;2022-08-19T06:49:24;20.70;99.90